sensor_id;sensor_type;location;lat;lon;timestamp;pressure;altitude;pressure_sealevel;temperature;humidity
8366;BME280;4220;42.502;24.188;2023-06-22T00:02:16;95649.19;;;19.25;100.00
8366;BME280;4220;42.502;24.188;2023-06-22T00:04:43;95639.41;;;19.04;100.00
8366;BME280;4220;42.502;24.188;2023-06-22T00:07:10;95652.16;;;18.81;100.00
8366;BME280;4220;42.502;24.188;2023-06-22T00:09:37;95647.38;;;18.88;100.00
8366;BME280;4220;42.502;24.188;2023-06-22T00:12:06;95653.34;;;19.01;100.00
8366;BME280;4220;42.502;24.188;2023-06-22T00:14:33;95655.00;;;19.12;100.00
8366;BME280;4220;42.502;24.188;2023-06-22T00:17:00;95662.88;;;19.18;100.00
8366;BME280;4220;42.502;24.188;2023-06-22T00:19:27;95649.97;;;19.20;100.00
8366;BME280;4220;42.502;24.188;2023-06-22T00:21:54;95663.31;;;19.05;100.00
8366;BME280;4220;42.502;24.188;2023-06-22T00:24:21;95670.09;;;19.13;100.00
8366;BME280;4220;42.502;24.188;2023-06-22T00:26:49;95664.19;;;19.16;100.00
8366;BME280;4220;42.502;24.188;2023-06-22T00:29:17;95657.13;;;19.05;100.00
8366;BME280;4220;42.502;24.188;2023-06-22T00:31:44;95656.91;;;19.11;100.00
8366;BME280;4220;42.502;24.188;2023-06-22T00:34:10;95663.09;;;19.12;100.00
8366;BME280;4220;42.502;24.188;2023-06-22T00:36:37;95658.25;;;19.09;100.00
8366;BME280;4220;42.502;24.188;2023-06-22T00:39:06;95658.69;;;18.96;100.00
8366;BME280;4220;42.502;24.188;2023-06-22T00:41:33;95655.19;;;18.95;100.00
8366;BME280;4220;42.502;24.188;2023-06-22T00:44:00;95625.28;;;18.81;100.00
8366;BME280;4220;42.502;24.188;2023-06-22T00:46:28;95664.69;;;19.08;100.00
8366;BME280;4220;42.502;24.188;2023-06-22T00:48:55;95660.84;;;18.93;100.00
8366;BME280;4220;42.502;24.188;2023-06-22T00:51:22;95650.53;;;18.80;100.00
8366;BME280;4220;42.502;24.188;2023-06-22T00:53:50;95648.94;;;18.79;100.00
8366;BME280;4220;42.502;24.188;2023-06-22T00:56:17;95653.38;;;18.64;100.00
8366;BME280;4220;42.502;24.188;2023-06-22T00:58:50;95652.06;;;18.66;100.00
8366;BME280;4220;42.502;24.188;2023-06-22T01:01:18;95662.34;;;18.74;100.00
8366;BME280;4220;42.502;24.188;2023-06-22T01:03:49;95646.13;;;18.64;100.00
8366;BME280;4220;42.502;24.188;2023-06-22T01:06:21;95655.66;;;18.82;100.00
8366;BME280;4220;42.502;24.188;2023-06-22T01:08:57;95651.41;;;18.91;100.00
8366;BME280;4220;42.502;24.188;2023-06-22T01:11:31;95642.56;;;18.96;100.00
8366;BME280;4220;42.502;24.188;2023-06-22T01:14:03;95647.13;;;18.95;100.00
8366;BME280;4220;42.502;24.188;2023-06-22T01:16:33;95646.59;;;18.93;100.00
8366;BME280;4220;42.502;24.188;2023-06-22T01:19:13;95644.16;;;18.91;100.00
8366;BME280;4220;42.502;24.188;2023-06-22T01:21:45;95648.28;;;18.62;100.00
8366;BME280;4220;42.502;24.188;2023-06-22T01:24:19;95636.44;;;18.63;100.00
8366;BME280;4220;42.502;24.188;2023-06-22T01:26:54;95634.84;;;18.67;100.00
8366;BME280;4220;42.502;24.188;2023-06-22T01:29:26;95638.63;;;18.66;100.00
8366;BME280;4220;42.502;24.188;2023-06-22T01:31:54;95633.28;;;18.71;100.00
8366;BME280;4220;42.502;24.188;2023-06-22T01:34:23;95646.28;;;18.84;100.00
8366;BME280;4220;42.502;24.188;2023-06-22T01:36:51;95642.25;;;18.92;100.00
8366;BME280;4220;42.502;24.188;2023-06-22T01:39:19;95634.50;;;18.96;100.00
8366;BME280;4220;42.502;24.188;2023-06-22T01:41:47;95614.03;;;18.89;100.00
8366;BME280;4220;42.502;24.188;2023-06-22T01:44:15;95648.59;;;19.13;100.00
8366;BME280;4220;42.502;24.188;2023-06-22T01:46:44;95641.34;;;19.18;100.00
8366;BME280;4220;42.502;24.188;2023-06-22T01:49:11;95599.22;;;18.87;100.00
8366;BME280;4220;42.502;24.188;2023-06-22T01:51:39;95628.75;;;18.77;100.00
8366;BME280;4220;42.502;24.188;2023-06-22T01:54:06;95625.47;;;18.38;100.00
8366;BME280;4220;42.502;24.188;2023-06-22T01:56:34;95634.22;;;18.23;100.00
8366;BME280;4220;42.502;24.188;2023-06-22T01:59:20;95624.75;;;18.16;100.00
8366;BME280;4220;42.502;24.188;2023-06-22T02:01:57;95530.16;;;17.45;100.00
8366;BME280;4220;42.502;24.188;2023-06-22T02:04:27;95649.81;;;18.26;100.00
8366;BME280;4220;42.502;24.188;2023-06-22T02:06:59;95632.69;;;18.01;100.00
8366;BME280;4220;42.502;24.188;2023-06-22T02:09:29;95629.09;;;17.90;100.00
8366;BME280;4220;42.502;24.188;2023-06-22T02:11:58;95623.94;;;17.84;100.00
8366;BME280;4220;42.502;24.188;2023-06-22T02:14:27;95637.19;;;17.95;100.00
8366;BME280;4220;42.502;24.188;2023-06-22T02:16:56;95635.94;;;17.76;100.00
8366;BME280;4220;42.502;24.188;2023-06-22T02:19:25;95642.84;;;17.99;100.00
8366;BME280;4220;42.502;24.188;2023-06-22T02:21:53;95644.06;;;18.13;100.00
8366;BME280;4220;42.502;24.188;2023-06-22T02:24:20;95554.47;;;17.60;100.00
8366;BME280;4220;42.502;24.188;2023-06-22T02:26:49;95642.13;;;18.35;100.00
8366;BME280;4220;42.502;24.188;2023-06-22T02:29:16;95613.41;;;18.09;100.00
8366;BME280;4220;42.502;24.188;2023-06-22T02:31:43;95652.38;;;18.43;100.00
8366;BME280;4220;42.502;24.188;2023-06-22T02:34:11;95652.94;;;18.45;100.00
8366;BME280;4220;42.502;24.188;2023-06-22T02:36:44;95657.31;;;18.51;100.00
8366;BME280;4220;42.502;24.188;2023-06-22T02:39:16;95648.16;;;18.20;100.00
8366;BME280;4220;42.502;24.188;2023-06-22T02:41:43;95667.25;;;17.97;100.00
8366;BME280;4220;42.502;24.188;2023-06-22T02:44:10;95660.78;;;17.50;100.00
8366;BME280;4220;42.502;24.188;2023-06-22T02:46:37;95657.63;;;17.10;100.00
8366;BME280;4220;42.502;24.188;2023-06-22T02:49:04;95625.16;;;16.68;100.00
8366;BME280;4220;42.502;24.188;2023-06-22T02:51:34;95652.69;;;17.02;100.00
8366;BME280;4220;42.502;24.188;2023-06-22T02:54:01;95628.75;;;17.17;100.00
8366;BME280;4220;42.502;24.188;2023-06-22T02:56:28;95636.91;;;17.48;100.00
8366;BME280;4220;42.502;24.188;2023-06-22T02:58:55;95630.75;;;17.70;100.00
8366;BME280;4220;42.502;24.188;2023-06-22T03:01:26;95636.91;;;17.70;100.00
8366;BME280;4220;42.502;24.188;2023-06-22T03:03:55;95637.97;;;17.91;100.00
8366;BME280;4220;42.502;24.188;2023-06-22T03:06:22;95648.63;;;18.12;100.00
8366;BME280;4220;42.502;24.188;2023-06-22T03:08:58;95623.88;;;17.79;100.00
8366;BME280;4220;42.502;24.188;2023-06-22T03:11:25;95649.63;;;18.06;100.00
8366;BME280;4220;42.502;24.188;2023-06-22T03:13:52;95652.31;;;18.06;100.00
8366;BME280;4220;42.502;24.188;2023-06-22T03:16:19;95654.72;;;18.03;100.00
8366;BME280;4220;42.502;24.188;2023-06-22T03:18:46;95658.09;;;18.20;100.00
8366;BME280;4220;42.502;24.188;2023-06-22T03:21:13;95656.59;;;18.34;100.00
8366;BME280;4220;42.502;24.188;2023-06-22T03:23:40;95644.84;;;18.40;100.00
8366;BME280;4220;42.502;24.188;2023-06-22T03:26:09;95654.94;;;18.55;100.00
8366;BME280;4220;42.502;24.188;2023-06-22T03:28:37;95661.34;;;18.54;100.00
8366;BME280;4220;42.502;24.188;2023-06-22T03:31:04;95665.44;;;18.61;100.00
8366;BME280;4220;42.502;24.188;2023-06-22T03:33:31;95662.50;;;18.63;100.00
8366;BME280;4220;42.502;24.188;2023-06-22T03:35:58;95663.34;;;18.68;100.00
8366;BME280;4220;42.502;24.188;2023-06-22T03:38:25;95664.44;;;18.72;100.00
8366;BME280;4220;42.502;24.188;2023-06-22T03:40:52;95677.34;;;18.70;100.00
8366;BME280;4220;42.502;24.188;2023-06-22T03:43:20;95676.78;;;18.68;100.00
8366;BME280;4220;42.502;24.188;2023-06-22T03:45:50;95676.03;;;18.78;100.00
8366;BME280;4220;42.502;24.188;2023-06-22T03:48:17;95647.78;;;18.70;100.00
8366;BME280;4220;42.502;24.188;2023-06-22T03:50:44;95682.41;;;19.04;100.00
8366;BME280;4220;42.502;24.188;2023-06-22T03:53:11;95682.44;;;19.09;100.00
8366;BME280;4220;42.502;24.188;2023-06-22T03:55:47;95679.00;;;19.18;100.00
8366;BME280;4220;42.502;24.188;2023-06-22T03:58:14;95670.16;;;19.23;100.00
8366;BME280;4220;42.502;24.188;2023-06-22T04:00:42;95673.44;;;19.35;100.00
8366;BME280;4220;42.502;24.188;2023-06-22T04:03:09;95678.59;;;19.41;100.00
8366;BME280;4220;42.502;24.188;2023-06-22T04:05:38;95652.72;;;19.35;100.00
8366;BME280;4220;42.502;24.188;2023-06-22T04:08:05;95665.19;;;19.51;100.00
8366;BME280;4220;42.502;24.188;2023-06-22T04:10:32;95686.53;;;19.63;100.00
8366;BME280;4220;42.502;24.188;2023-06-22T04:12:59;95697.31;;;19.73;100.00
8366;BME280;4220;42.502;24.188;2023-06-22T04:15:26;95680.63;;;19.71;100.00
8366;BME280;4220;42.502;24.188;2023-06-22T04:17:55;95696.81;;;19.86;100.00
8366;BME280;4220;42.502;24.188;2023-06-22T04:20:22;95684.72;;;19.89;100.00
8366;BME280;4220;42.502;24.188;2023-06-22T04:22:51;95690.94;;;19.99;100.00
8366;BME280;4220;42.502;24.188;2023-06-22T04:25:18;95689.88;;;20.05;100.00
8366;BME280;4220;42.502;24.188;2023-06-22T04:27:45;95688.81;;;20.11;100.00
8366;BME280;4220;42.502;24.188;2023-06-22T04:30:12;95688.56;;;20.18;100.00
8366;BME280;4220;42.502;24.188;2023-06-22T04:32:40;95680.81;;;20.27;100.00
8366;BME280;4220;42.502;24.188;2023-06-22T04:35:09;95670.28;;;20.30;100.00
8366;BME280;4220;42.502;24.188;2023-06-22T04:37:36;95676.50;;;20.41;100.00
8366;BME280;4220;42.502;24.188;2023-06-22T04:40:03;95669.22;;;20.41;100.00
8366;BME280;4220;42.502;24.188;2023-06-22T04:42:34;95682.72;;;20.61;100.00
8366;BME280;4220;42.502;24.188;2023-06-22T04:45:02;95678.41;;;20.65;100.00
8366;BME280;4220;42.502;24.188;2023-06-22T04:47:29;95674.06;;;20.64;100.00
8366;BME280;4220;42.502;24.188;2023-06-22T04:49:55;95690.25;;;20.64;100.00
8366;BME280;4220;42.502;24.188;2023-06-22T04:52:24;95680.56;;;20.73;100.00
8366;BME280;4220;42.502;24.188;2023-06-22T04:54:50;95674.34;;;20.83;100.00
8366;BME280;4220;42.502;24.188;2023-06-22T04:57:21;95679.75;;;20.83;100.00
8366;BME280;4220;42.502;24.188;2023-06-22T04:59:58;95676.22;;;20.77;100.00
8366;BME280;4220;42.502;24.188;2023-06-22T05:02:32;95668.97;;;20.83;100.00
8366;BME280;4220;42.502;24.188;2023-06-22T05:04:59;95665.97;;;20.95;100.00
8366;BME280;4220;42.502;24.188;2023-06-22T05:07:27;95680.78;;;21.27;100.00
8366;BME280;4220;42.502;24.188;2023-06-22T05:09:54;95676.16;;;21.28;100.00
8366;BME280;4220;42.502;24.188;2023-06-22T05:12:21;95679.66;;;21.33;100.00
8366;BME280;4220;42.502;24.188;2023-06-22T05:14:48;95670.78;;;21.28;100.00
8366;BME280;4220;42.502;24.188;2023-06-22T05:17:14;95662.38;;;21.49;100.00
8366;BME280;4220;42.502;24.188;2023-06-22T05:19:44;95682.19;;;21.84;100.00
8366;BME280;4220;42.502;24.188;2023-06-22T05:22:14;95660.84;;;21.87;100.00
8366;BME280;4220;42.502;24.188;2023-06-22T05:24:42;95687.41;;;22.19;100.00
8366;BME280;4220;42.502;24.188;2023-06-22T05:27:09;95679.56;;;22.28;100.00
8366;BME280;4220;42.502;24.188;2023-06-22T05:29:37;95681.31;;;22.47;100.00
8366;BME280;4220;42.502;24.188;2023-06-22T05:32:04;95687.50;;;22.53;100.00
8366;BME280;4220;42.502;24.188;2023-06-22T05:34:31;95689.09;;;22.54;100.00
8366;BME280;4220;42.502;24.188;2023-06-22T05:36:58;95677.94;;;22.65;100.00
8366;BME280;4220;42.502;24.188;2023-06-22T05:39:25;95692.94;;;22.87;100.00
8366;BME280;4220;42.502;24.188;2023-06-22T05:41:53;95695.34;;;22.88;100.00
8366;BME280;4220;42.502;24.188;2023-06-22T05:44:20;95653.00;;;22.73;100.00
8366;BME280;4220;42.502;24.188;2023-06-22T05:46:47;95678.75;;;23.00;100.00
8366;BME280;4220;42.502;24.188;2023-06-22T05:49:14;95675.22;;;22.99;100.00
8366;BME280;4220;42.502;24.188;2023-06-22T05:51:42;95695.88;;;23.19;100.00
8366;BME280;4220;42.502;24.188;2023-06-22T05:54:09;95702.53;;;23.31;100.00
8366;BME280;4220;42.502;24.188;2023-06-22T05:56:35;95687.84;;;23.37;100.00
8366;BME280;4220;42.502;24.188;2023-06-22T05:59:04;95696.94;;;23.47;100.00
8366;BME280;4220;42.502;24.188;2023-06-22T06:01:30;95698.81;;;23.51;100.00
8366;BME280;4220;42.502;24.188;2023-06-22T06:04:01;95686.88;;;23.52;100.00
8366;BME280;4220;42.502;24.188;2023-06-22T06:06:29;95684.19;;;23.52;100.00
8366;BME280;4220;42.502;24.188;2023-06-22T06:08:56;95668.00;;;23.47;100.00
8366;BME280;4220;42.502;24.188;2023-06-22T06:11:24;95678.19;;;23.55;100.00
8366;BME280;4220;42.502;24.188;2023-06-22T06:13:51;95690.59;;;23.61;100.00
8366;BME280;4220;42.502;24.188;2023-06-22T06:16:19;95678.06;;;23.65;100.00
8366;BME280;4220;42.502;24.188;2023-06-22T06:18:46;95680.31;;;23.82;100.00
8366;BME280;4220;42.502;24.188;2023-06-22T06:21:15;95685.34;;;23.70;100.00
8366;BME280;4220;42.502;24.188;2023-06-22T06:23:42;95682.44;;;23.37;100.00
8366;BME280;4220;42.502;24.188;2023-06-22T06:26:08;95684.19;;;23.52;100.00
8366;BME280;4220;42.502;24.188;2023-06-22T06:28:35;95688.97;;;23.60;100.00
8366;BME280;4220;42.502;24.188;2023-06-22T06:31:02;95663.41;;;23.66;100.00
8366;BME280;4220;42.502;24.188;2023-06-22T06:33:33;95679.94;;;23.88;100.00
8366;BME280;4220;42.502;24.188;2023-06-22T06:36:00;95694.69;;;24.01;100.00
8366;BME280;4220;42.502;24.188;2023-06-22T06:38:29;95694.97;;;23.99;100.00
8366;BME280;4220;42.502;24.188;2023-06-22T06:40:56;95690.00;;;24.06;100.00
8366;BME280;4220;42.502;24.188;2023-06-22T06:43:22;95678.31;;;24.11;100.00
8366;BME280;4220;42.502;24.188;2023-06-22T06:45:50;95689.13;;;24.35;100.00
8366;BME280;4220;42.502;24.188;2023-06-22T06:48:17;95696.06;;;24.59;100.00
8366;BME280;4220;42.502;24.188;2023-06-22T06:50:45;95699.00;;;24.63;100.00
8366;BME280;4220;42.502;24.188;2023-06-22T06:53:12;95694.22;;;24.74;100.00
8366;BME280;4220;42.502;24.188;2023-06-22T06:55:39;95705.72;;;24.84;100.00
8366;BME280;4220;42.502;24.188;2023-06-22T06:58:06;95692.31;;;25.06;100.00
8366;BME280;4220;42.502;24.188;2023-06-22T07:00:35;95677.28;;;25.14;99.10
8366;BME280;4220;42.502;24.188;2023-06-22T07:03:02;95699.13;;;25.36;92.89
8366;BME280;4220;42.502;24.188;2023-06-22T07:05:29;95690.63;;;25.43;84.02
8366;BME280;4220;42.502;24.188;2023-06-22T07:07:57;95696.09;;;25.70;84.16
8366;BME280;4220;42.502;24.188;2023-06-22T07:10:24;95697.72;;;25.84;84.38
8366;BME280;4220;42.502;24.188;2023-06-22T07:12:51;95694.06;;;26.03;83.03
8366;BME280;4220;42.502;24.188;2023-06-22T07:15:18;95693.34;;;26.11;80.02
8366;BME280;4220;42.502;24.188;2023-06-22T07:17:45;95681.28;;;26.03;77.64
8366;BME280;4220;42.502;24.188;2023-06-22T07:20:12;95663.34;;;26.02;78.92
8366;BME280;4220;42.502;24.188;2023-06-22T07:22:39;95687.63;;;26.26;78.50
8366;BME280;4220;42.502;24.188;2023-06-22T07:25:08;95693.94;;;26.35;78.34
8366;BME280;4220;42.502;24.188;2023-06-22T07:27:36;95688.81;;;26.33;78.31
8366;BME280;4220;42.502;24.188;2023-06-22T07:30:06;95674.91;;;26.35;77.38
8366;BME280;4220;42.502;24.188;2023-06-22T07:32:33;95686.41;;;26.54;78.29
8366;BME280;4220;42.502;24.188;2023-06-22T07:35:00;95677.22;;;26.63;77.30
8366;BME280;4220;42.502;24.188;2023-06-22T07:37:28;95687.03;;;26.87;76.46
8366;BME280;4220;42.502;24.188;2023-06-22T07:39:55;95689.88;;;26.82;75.09
8366;BME280;4220;42.502;24.188;2023-06-22T07:42:25;95690.66;;;26.60;75.29
8366;BME280;4220;42.502;24.188;2023-06-22T07:44:53;95675.13;;;26.60;76.27
8366;BME280;4220;42.502;24.188;2023-06-22T07:47:20;95669.19;;;26.81;75.39
8366;BME280;4220;42.502;24.188;2023-06-22T07:49:50;95638.69;;;26.70;74.40
8366;BME280;4220;42.502;24.188;2023-06-22T07:52:17;95684.00;;;26.88;74.41
8366;BME280;4220;42.502;24.188;2023-06-22T07:54:44;95674.28;;;26.96;76.51
8366;BME280;4220;42.502;24.188;2023-06-22T07:57:10;95692.97;;;27.11;76.23
8366;BME280;4220;42.502;24.188;2023-06-22T07:59:39;95670.06;;;27.12;74.35
8366;BME280;4220;42.502;24.188;2023-06-22T08:02:05;95680.47;;;27.10;75.76
8366;BME280;4220;42.502;24.188;2023-06-22T08:04:34;95668.84;;;26.96;77.11
8366;BME280;4220;42.502;24.188;2023-06-22T08:07:00;95604.38;;;26.60;75.27
8366;BME280;4220;42.502;24.188;2023-06-22T08:09:27;95636.94;;;26.88;76.81
8366;BME280;4220;42.502;24.188;2023-06-22T08:11:54;95670.44;;;27.19;76.49
8366;BME280;4220;42.502;24.188;2023-06-22T08:14:22;95672.69;;;27.25;75.33
8366;BME280;4220;42.502;24.188;2023-06-22T08:16:50;95685.38;;;27.30;76.65
8366;BME280;4220;42.502;24.188;2023-06-22T08:19:17;95689.72;;;27.31;77.18
8366;BME280;4220;42.502;24.188;2023-06-22T08:21:44;95691.16;;;27.29;76.89
8366;BME280;4220;42.502;24.188;2023-06-22T08:24:11;95683.16;;;27.32;76.26
8366;BME280;4220;42.502;24.188;2023-06-22T08:26:38;95681.06;;;27.29;76.49
8366;BME280;4220;42.502;24.188;2023-06-22T08:29:05;95673.16;;;27.19;75.48
8366;BME280;4220;42.502;24.188;2023-06-22T08:31:32;95676.38;;;27.21;75.99
8366;BME280;4220;42.502;24.188;2023-06-22T08:34:01;95653.88;;;27.07;75.49
8366;BME280;4220;42.502;24.188;2023-06-22T08:36:28;95672.47;;;27.13;74.84
8366;BME280;4220;42.502;24.188;2023-06-22T08:38:55;95669.69;;;27.27;76.26
8366;BME280;4220;42.502;24.188;2023-06-22T08:41:28;95675.66;;;27.38;74.94
8366;BME280;4220;42.502;24.188;2023-06-22T08:43:55;95687.94;;;27.49;75.46
8366;BME280;4220;42.502;24.188;2023-06-22T08:46:25;95675.06;;;27.41;73.96
8366;BME280;4220;42.502;24.188;2023-06-22T08:48:56;95650.88;;;27.39;75.54
8366;BME280;4220;42.502;24.188;2023-06-22T08:51:25;95667.16;;;27.61;75.61
8366;BME280;4220;42.502;24.188;2023-06-22T08:53:52;95682.41;;;27.71;74.01
8366;BME280;4220;42.502;24.188;2023-06-22T08:56:18;95664.13;;;27.71;74.13
8366;BME280;4220;42.502;24.188;2023-06-22T08:58:45;95669.47;;;27.85;75.52
8366;BME280;4220;42.502;24.188;2023-06-22T09:01:12;95642.88;;;27.91;73.81
8366;BME280;4220;42.502;24.188;2023-06-22T09:03:40;95654.47;;;28.05;74.31
8366;BME280;4220;42.502;24.188;2023-06-22T09:06:07;95656.38;;;28.04;72.83
8366;BME280;4220;42.502;24.188;2023-06-22T09:08:36;95648.81;;;27.93;72.88
8366;BME280;4220;42.502;24.188;2023-06-22T09:11:03;95666.66;;;28.07;73.08
8366;BME280;4220;42.502;24.188;2023-06-22T09:13:30;95660.88;;;28.00;73.40
8366;BME280;4220;42.502;24.188;2023-06-22T09:15:57;95667.69;;;27.89;73.99
8366;BME280;4220;42.502;24.188;2023-06-22T09:18:25;95656.38;;;28.04;74.84
8366;BME280;4220;42.502;24.188;2023-06-22T09:20:52;95661.91;;;28.30;72.26
8366;BME280;4220;42.502;24.188;2023-06-22T09:23:19;95662.38;;;28.32;72.26
8366;BME280;4220;42.502;24.188;2023-06-22T09:25:47;95644.56;;;28.34;72.66
8366;BME280;4220;42.502;24.188;2023-06-22T09:28:14;95630.94;;;28.34;71.94
8366;BME280;4220;42.502;24.188;2023-06-22T09:30:42;95668.16;;;28.56;72.07
8366;BME280;4220;42.502;24.188;2023-06-22T09:33:10;95660.47;;;28.58;71.99
8366;BME280;4220;42.502;24.188;2023-06-22T09:35:37;95600.72;;;28.05;71.24
8366;BME280;4220;42.502;24.188;2023-06-22T09:38:04;95630.44;;;28.32;70.99
8366;BME280;4220;42.502;24.188;2023-06-22T09:40:31;95658.41;;;28.89;72.58
8366;BME280;4220;42.502;24.188;2023-06-22T09:43:02;95650.19;;;29.06;66.48
8366;BME280;4220;42.502;24.188;2023-06-22T09:45:29;95666.56;;;29.24;64.69
8366;BME280;4220;42.502;24.188;2023-06-22T09:47:56;95661.34;;;29.48;59.97
8366;BME280;4220;42.502;24.188;2023-06-22T09:50:23;95664.44;;;29.84;59.29
8366;BME280;4220;42.502;24.188;2023-06-22T09:52:49;95643.81;;;29.87;58.80
8366;BME280;4220;42.502;24.188;2023-06-22T09:55:20;95635.09;;;29.93;57.78
8366;BME280;4220;42.502;24.188;2023-06-22T09:57:47;95647.34;;;30.16;56.43
8366;BME280;4220;42.502;24.188;2023-06-22T10:00:16;95657.56;;;30.28;55.42
8366;BME280;4220;42.502;24.188;2023-06-22T10:02:44;95646.16;;;30.26;55.26
8366;BME280;4220;42.502;24.188;2023-06-22T10:05:11;95644.63;;;30.16;54.78
8366;BME280;4220;42.502;24.188;2023-06-22T10:07:38;95655.28;;;30.38;54.68
8366;BME280;4220;42.502;24.188;2023-06-22T10:10:08;95655.75;;;30.40;53.28
8366;BME280;4220;42.502;24.188;2023-06-22T10:12:35;95643.06;;;30.27;52.46
8366;BME280;4220;42.502;24.188;2023-06-22T10:15:02;95634.09;;;30.27;54.31
8366;BME280;4220;42.502;24.188;2023-06-22T10:17:30;95628.16;;;30.46;55.10
8366;BME280;4220;42.502;24.188;2023-06-22T10:19:57;95644.06;;;30.73;53.55
8366;BME280;4220;42.502;24.188;2023-06-22T10:22:24;95638.38;;;30.57;56.29
8366;BME280;4220;42.502;24.188;2023-06-22T10:24:51;95640.94;;;30.42;59.01
8366;BME280;4220;42.502;24.188;2023-06-22T10:27:18;95630.09;;;30.24;60.25
8366;BME280;4220;42.502;24.188;2023-06-22T10:29:45;95634.50;;;30.37;57.73
8366;BME280;4220;42.502;24.188;2023-06-22T10:32:12;95600.84;;;30.16;59.42
8366;BME280;4220;42.502;24.188;2023-06-22T10:34:40;95623.91;;;30.27;57.67
8366;BME280;4220;42.502;24.188;2023-06-22T10:37:07;95636.19;;;30.51;54.65
8366;BME280;4220;42.502;24.188;2023-06-22T10:39:33;95637.31;;;30.50;53.97
8366;BME280;4220;42.502;24.188;2023-06-22T10:42:00;95582.28;;;30.22;53.41
8366;BME280;4220;42.502;24.188;2023-06-22T10:44:27;95610.69;;;30.38;52.74
8366;BME280;4220;42.502;24.188;2023-06-22T10:46:54;95610.13;;;30.45;52.95
8366;BME280;4220;42.502;24.188;2023-06-22T10:49:21;95626.75;;;30.60;52.15
8366;BME280;4220;42.502;24.188;2023-06-22T10:51:52;95630.22;;;30.90;51.29
8366;BME280;4220;42.502;24.188;2023-06-22T10:54:19;95620.22;;;31.06;50.33
8366;BME280;4220;42.502;24.188;2023-06-22T10:56:45;95623.91;;;31.55;50.01
8366;BME280;4220;42.502;24.188;2023-06-22T10:59:12;95623.78;;;31.88;51.75
8366;BME280;4220;42.502;24.188;2023-06-22T11:01:39;95625.97;;;32.18;52.19
8366;BME280;4220;42.502;24.188;2023-06-22T11:04:06;95633.69;;;32.65;50.88
8366;BME280;4220;42.502;24.188;2023-06-22T11:06:33;95614.97;;;32.82;50.52
8366;BME280;4220;42.502;24.188;2023-06-22T11:09:01;95630.84;;;33.32;49.94
8366;BME280;4220;42.502;24.188;2023-06-22T11:11:29;95639.66;;;33.38;47.77
8366;BME280;4220;42.502;24.188;2023-06-22T11:13:56;95624.84;;;33.27;46.64
8366;BME280;4220;42.502;24.188;2023-06-22T11:16:22;95609.63;;;33.17;46.62
8366;BME280;4220;42.502;24.188;2023-06-22T11:18:49;95639.41;;;33.43;46.90
8366;BME280;4220;42.502;24.188;2023-06-22T11:21:16;95638.34;;;33.32;47.50
8366;BME280;4220;42.502;24.188;2023-06-22T11:23:43;95638.34;;;33.32;47.50
8366;BME280;4220;42.502;24.188;2023-06-22T11:26:11;95645.19;;;33.10;47.27
8366;BME280;4220;42.502;24.188;2023-06-22T11:28:38;95620.53;;;32.86;48.35
8366;BME280;4220;42.502;24.188;2023-06-22T11:31:05;95622.94;;;32.87;48.45
8366;BME280;4220;42.502;24.188;2023-06-22T11:33:32;95628.03;;;33.01;48.19
8366;BME280;4220;42.502;24.188;2023-06-22T11:35:59;95621.09;;;32.91;48.31
8366;BME280;4220;42.502;24.188;2023-06-22T11:38:26;95636.59;;;33.12;48.29
8366;BME280;4220;42.502;24.188;2023-06-22T11:40:53;95633.19;;;33.03;49.36
8366;BME280;4220;42.502;24.188;2023-06-22T11:43:21;95633.41;;;33.10;49.83
8366;BME280;4220;42.502;24.188;2023-06-22T11:45:48;95634.03;;;33.19;50.03
8366;BME280;4220;42.502;24.188;2023-06-22T11:48:16;95620.91;;;32.33;49.17
8366;BME280;4220;42.502;24.188;2023-06-22T11:50:42;95619.88;;;32.37;50.76
8366;BME280;4220;42.502;24.188;2023-06-22T11:53:09;95606.91;;;32.62;49.39
8366;BME280;4220;42.502;24.188;2023-06-22T11:55:36;95581.81;;;32.63;47.84
8366;BME280;4220;42.502;24.188;2023-06-22T11:58:03;95614.53;;;32.68;46.44
8366;BME280;4220;42.502;24.188;2023-06-22T12:00:32;95624.59;;;32.76;48.54
8366;BME280;4220;42.502;24.188;2023-06-22T12:02:59;95631.69;;;33.05;48.73
8366;BME280;4220;42.502;24.188;2023-06-22T12:05:26;95627.66;;;33.30;47.47
8366;BME280;4220;42.502;24.188;2023-06-22T12:07:53;95604.59;;;33.19;46.95
8366;BME280;4220;42.502;24.188;2023-06-22T12:10:20;95635.03;;;33.42;46.10
8366;BME280;4220;42.502;24.188;2023-06-22T12:12:48;95623.38;;;33.17;46.13
8366;BME280;4220;42.502;24.188;2023-06-22T12:15:15;95630.59;;;32.94;47.16
8366;BME280;4220;42.502;24.188;2023-06-22T12:17:43;95627.63;;;32.47;47.88
8366;BME280;4220;42.502;24.188;2023-06-22T12:20:10;95614.66;;;32.08;48.88
8366;BME280;4220;42.502;24.188;2023-06-22T12:22:37;95610.75;;;31.73;49.73
8366;BME280;4220;42.502;24.188;2023-06-22T12:25:05;95610.66;;;31.57;50.70
8366;BME280;4220;42.502;24.188;2023-06-22T12:27:32;95602.00;;;31.22;51.94
8366;BME280;4220;42.502;24.188;2023-06-22T12:29:59;95608.59;;;31.09;52.68
8366;BME280;4220;42.502;24.188;2023-06-22T12:32:26;95602.19;;;31.05;53.62
8366;BME280;4220;42.502;24.188;2023-06-22T12:34:54;95588.25;;;30.98;53.45
8366;BME280;4220;42.502;24.188;2023-06-22T12:37:21;95596.84;;;31.21;51.57
8366;BME280;4220;42.502;24.188;2023-06-22T12:39:48;95603.38;;;31.28;50.79
8366;BME280;4220;42.502;24.188;2023-06-22T12:42:15;95595.59;;;31.18;50.35
8366;BME280;4220;42.502;24.188;2023-06-22T12:44:42;95598.66;;;31.49;49.90
8366;BME280;4220;42.502;24.188;2023-06-22T12:47:10;95594.06;;;31.78;49.69
8366;BME280;4220;42.502;24.188;2023-06-22T12:49:37;95601.19;;;32.03;48.59
8366;BME280;4220;42.502;24.188;2023-06-22T12:52:08;95597.03;;;31.97;48.50
8366;BME280;4220;42.502;24.188;2023-06-22T12:54:35;95593.28;;;31.89;49.39
8366;BME280;4220;42.502;24.188;2023-06-22T12:57:02;95604.59;;;31.88;49.94
8366;BME280;4220;42.502;24.188;2023-06-22T12:59:29;95609.66;;;31.98;49.88
8366;BME280;4220;42.502;24.188;2023-06-22T13:01:56;95608.72;;;31.94;49.02
8366;BME280;4220;42.502;24.188;2023-06-22T13:04:23;95606.97;;;31.77;48.47
8366;BME280;4220;42.502;24.188;2023-06-22T13:06:49;95600.25;;;31.62;49.38
8366;BME280;4220;42.502;24.188;2023-06-22T13:09:19;95615.22;;;31.65;49.57